createdAt,value
2018-09-04T00:01:42.534Z,92.89
2018-09-04T00:04:09.882Z,93.00
2018-09-04T00:06:37.374Z,92.62
2018-09-04T00:09:05.317Z,93.80
2018-09-04T00:11:32.605Z,93.56
2018-09-04T00:13:59.876Z,93.18
2018-09-04T00:16:27.093Z,93.35
2018-09-04T00:18:54.505Z,93.50
2018-09-04T00:21:21.959Z,92.47
2018-09-04T00:23:49.268Z,93.38
2018-09-04T00:26:16.774Z,93.12
2018-09-04T00:28:44.165Z,93.24
2018-09-04T00:31:11.602Z,93.07
2018-09-04T00:33:38.964Z,93.28
2018-09-04T00:36:06.980Z,93.02
2018-09-04T00:38:34.422Z,92.85
2018-09-04T00:41:01.705Z,92.77
2018-09-04T00:43:28.981Z,93.34
2018-09-04T00:45:57.239Z,93.92
2018-09-04T00:48:25.252Z,93.87
2018-09-04T00:50:52.599Z,93.46
2018-09-04T00:53:20.155Z,93.21
2018-09-04T00:55:47.694Z,93.33
2018-09-04T00:58:14.966Z,93.77
2018-09-04T01:00:42.550Z,94.01
2018-09-04T01:03:09.935Z,94.29
2018-09-04T01:05:37.315Z,94.16
2018-09-04T01:08:04.941Z,94.20
2018-09-04T01:10:32.634Z,94.24
2018-09-04T01:13:00.133Z,94.22
2018-09-04T01:15:27.538Z,94.17
2018-09-04T01:17:54.827Z,94.02
2018-09-04T01:20:22.309Z,93.12
2018-09-04T01:22:49.612Z,93.44
2018-09-04T01:25:17.472Z,94.23
2018-09-04T01:27:44.945Z,93.19
2018-09-04T01:30:12.249Z,93.62
2018-09-04T01:32:39.516Z,93.94
2018-09-04T01:35:06.817Z,93.97
2018-09-04T01:37:34.385Z,93.19
2018-09-04T01:40:01.720Z,93.35
2018-09-04T01:42:29.094Z,93.19
2018-09-04T01:44:56.586Z,93.13
2018-09-04T01:47:24.052Z,93.38
2018-09-04T01:49:51.532Z,94.25
2018-09-04T01:52:18.918Z,94.27
2018-09-04T01:54:46.529Z,93.29
2018-09-04T01:57:13.869Z,93.19
2018-09-04T01:59:41.171Z,93.21
2018-09-04T02:02:08.467Z,93.41
2018-09-04T02:04:36.504Z,93.24
2018-09-04T02:07:04.025Z,92.94
2018-09-04T02:09:31.353Z,93.61
2018-09-04T02:11:58.582Z,92.84
2018-09-04T02:14:25.858Z,92.68
2018-09-04T02:16:53.143Z,92.46
2018-09-04T02:19:20.775Z,92.17
2018-09-04T02:21:48.555Z,92.23
2018-09-04T02:24:16.653Z,92.54
2018-09-04T02:26:43.963Z,92.94
2018-09-04T02:29:11.829Z,92.39
2018-09-04T02:31:39.502Z,92.71
2018-09-04T02:34:07.519Z,92.36
2018-09-04T02:36:35.005Z,92.16
2018-09-04T02:39:02.368Z,93.64
2018-09-04T02:41:29.602Z,92.95
2018-09-04T02:43:56.826Z,92.54
2018-09-04T02:46:24.131Z,93.31
2018-09-04T02:48:52.182Z,93.09
2018-09-04T02:51:19.745Z,93.61
2018-09-04T02:53:47.417Z,93.22
2018-09-04T02:56:14.766Z,93.08
2018-09-04T02:58:42.227Z,93.08
2018-09-04T03:01:09.594Z,93.15
2018-09-04T03:03:37.237Z,92.96
2018-09-04T03:06:04.844Z,92.79
2018-09-04T03:08:32.230Z,92.73
2018-09-04T03:11:00.623Z,92.84
2018-09-04T03:13:28.060Z,92.94
2018-09-04T03:15:55.718Z,92.75
2018-09-04T03:18:22.997Z,92.33
2018-09-04T03:20:50.555Z,92.69
2018-09-04T03:23:17.882Z,93.67
2018-09-04T03:25:45.147Z,93.41
2018-09-04T03:28:12.405Z,92.96
2018-09-04T03:30:39.843Z,92.99
2018-09-04T03:33:07.134Z,92.21
2018-09-04T03:35:34.502Z,92.44
2018-09-04T03:38:02.270Z,91.98
2018-09-04T03:40:29.567Z,93.24
2018-09-04T03:42:56.857Z,93.35
2018-09-04T03:45:24.139Z,93.15
2018-09-04T03:47:51.415Z,92.92
2018-09-04T03:50:18.823Z,93.39
2018-09-04T03:52:46.337Z,93.74
2018-09-04T03:55:13.632Z,93.09
2018-09-04T03:57:40.912Z,93.17
2018-09-04T04:00:08.308Z,94.03
2018-09-04T04:02:36.050Z,93.44
2018-09-04T04:05:03.784Z,92.80
2018-09-04T04:07:31.287Z,93.64
2018-09-04T04:09:58.712Z,93.88
2018-09-04T04:12:26.587Z,93.09
2018-09-04T04:14:53.946Z,93.59
2018-09-04T04:17:21.403Z,92.98
2018-09-04T04:19:49.201Z,92.87
2018-09-04T04:22:16.483Z,93.48
2018-09-04T04:24:43.731Z,93.09
2018-09-04T04:27:11.155Z,92.87
2018-09-04T04:29:38.714Z,92.84
2018-09-04T04:32:13.319Z,93.16
2018-09-04T04:34:40.574Z,93.30
2018-09-04T04:37:07.866Z,93.80
2018-09-04T04:39:35.226Z,93.72
2018-09-04T04:42:02.507Z,93.06
2018-09-04T04:44:29.787Z,93.21
2018-09-04T04:46:57.085Z,93.49
2018-09-04T04:49:24.433Z,94.24
2018-09-04T04:51:52.666Z,94.21
2018-09-04T04:54:19.990Z,93.37
2018-09-04T04:56:47.474Z,93.01
2018-09-04T04:59:14.945Z,93.43
2018-09-04T05:01:42.246Z,93.45
2018-09-04T05:04:09.595Z,93.32
2018-09-04T05:06:36.882Z,93.08
2018-09-04T05:09:06.341Z,94.33
2018-09-04T05:11:33.892Z,93.97
2018-09-04T05:14:01.224Z,94.82
2018-09-04T05:16:28.551Z,94.47
2018-09-04T05:18:56.132Z,93.17
2018-09-04T05:21:23.594Z,93.91
2018-09-04T05:23:51.006Z,94.11
2018-09-04T05:26:18.262Z,94.64
2018-09-04T05:28:45.513Z,94.38
2018-09-04T05:31:12.788Z,94.09
2018-09-04T05:33:42.558Z,94.08
2018-09-04T05:36:09.905Z,94.47
2018-09-04T05:38:37.490Z,94.62
2018-09-04T05:41:04.845Z,94.60
2018-09-04T05:43:40.538Z,94.38
2018-09-04T05:46:13.240Z,93.64
2018-09-04T05:48:40.974Z,95.07
2018-09-04T05:51:08.325Z,93.91
2018-09-04T05:53:35.675Z,94.70
2018-09-04T05:56:02.998Z,94.94
2018-09-04T05:58:30.287Z,94.20
2018-09-04T06:01:00.646Z,94.08
2018-09-04T06:03:28.137Z,93.68
2018-09-04T06:05:55.643Z,94.87
2018-09-04T06:08:22.935Z,94.23
2018-09-04T06:10:50.225Z,94.56
2018-09-04T06:13:17.507Z,93.86
2018-09-04T06:15:44.803Z,93.49
2018-09-04T06:18:13.095Z,93.86
2018-09-04T06:20:40.401Z,93.55
2018-09-04T06:23:08.012Z,93.77
2018-09-04T06:25:35.708Z,93.26
2018-09-04T06:28:03.534Z,94.17
2018-09-04T06:30:31.011Z,94.03
2018-09-04T06:32:58.493Z,93.96
2018-09-04T06:35:25.849Z,93.72
2018-09-04T06:37:53.224Z,93.29
2018-09-04T06:40:20.796Z,92.78
2018-09-04T06:42:48.230Z,93.46
2018-09-04T06:45:15.545Z,93.35
2018-09-04T06:47:42.919Z,93.71
2018-09-04T06:50:10.285Z,93.83
2018-09-04T06:52:37.558Z,93.76
2018-09-04T06:55:05.664Z,93.20
2018-09-04T06:57:32.921Z,92.82
2018-09-04T07:00:00.365Z,93.15
2018-09-04T07:02:27.910Z,92.13
2018-09-04T07:04:55.415Z,91.69
2018-09-04T07:07:22.691Z,92.14
2018-09-04T07:09:50.204Z,92.35
2018-09-04T07:12:17.613Z,92.60
2018-09-04T07:14:44.958Z,92.75
2018-09-04T07:17:12.324Z,92.77
2018-09-04T07:19:39.621Z,92.60
2018-09-04T07:22:07.184Z,93.24
2018-09-04T07:24:34.554Z,92.59
2018-09-04T07:27:01.899Z,93.18
2018-09-04T07:29:29.508Z,92.96
2018-09-04T07:31:56.802Z,93.02
2018-09-04T07:34:24.171Z,92.14
2018-09-04T07:36:51.481Z,92.46
2018-09-04T07:39:18.985Z,92.88
2018-09-04T07:41:46.289Z,92.63
2018-09-04T07:44:13.660Z,92.12
2018-09-04T07:46:40.973Z,91.84
2018-09-04T07:49:08.425Z,92.54
2018-09-04T07:51:35.868Z,92.08
2018-09-04T07:54:03.272Z,92.07
2018-09-04T07:56:30.577Z,91.47
2018-09-04T07:58:58.334Z,91.33
2018-09-04T08:01:25.837Z,91.58
2018-09-04T08:03:53.385Z,90.93
2018-09-04T08:06:20.809Z,90.75
2018-09-04T08:08:48.199Z,90.77
2018-09-04T08:11:15.564Z,90.88
2018-09-04T08:13:42.835Z,90.74
2018-09-04T08:16:10.868Z,90.78
2018-09-04T08:18:38.331Z,90.54
2018-09-04T08:21:06.037Z,90.88
2018-09-04T08:23:33.427Z,89.91
2018-09-04T08:26:00.915Z,90.15
2018-09-04T08:28:28.280Z,90.53
2018-09-04T08:30:55.621Z,90.16
2018-09-04T08:33:23.154Z,89.85
2018-09-04T08:35:51.099Z,89.18
2018-09-04T08:38:18.392Z,90.13
2018-09-04T08:40:45.709Z,90.66
2018-09-04T08:43:13.419Z,90.98
2018-09-04T08:45:40.738Z,90.07
2018-09-04T08:48:13.638Z,90.41
2018-09-04T08:50:41.044Z,90.16
2018-09-04T08:53:08.419Z,90.21
2018-09-04T08:55:35.871Z,90.01
2018-09-04T08:58:03.167Z,90.24
2018-09-04T09:00:30.477Z,89.79
2018-09-04T09:02:58.156Z,89.86
2018-09-04T09:05:25.750Z,89.50
2018-09-04T09:07:53.484Z,88.96
2018-09-04T09:10:22.004Z,88.61
2018-09-04T09:12:49.320Z,88.65
2018-09-04T09:15:16.997Z,88.73
2018-09-04T09:17:44.482Z,89.21
2018-09-04T09:20:11.930Z,89.48
2018-09-04T09:22:39.360Z,88.89
2018-09-04T09:25:06.713Z,88.38
2018-09-04T09:27:34.097Z,88.56
2018-09-04T09:30:01.400Z,88.18
2018-09-04T09:32:29.022Z,87.51
2018-09-04T09:34:56.303Z,88.06
2018-09-04T09:37:23.602Z,87.88
2018-09-04T09:39:50.893Z,87.19
2018-09-04T09:42:19.013Z,87.77
2018-09-04T09:44:46.347Z,87.05
2018-09-04T09:47:14.404Z,87.14
2018-09-04T09:49:42.071Z,87.34
2018-09-04T09:52:09.604Z,86.78
2018-09-04T09:54:36.991Z,86.17
2018-09-04T09:57:04.607Z,86.20
2018-09-04T09:59:32.124Z,86.44
2018-09-04T10:02:05.362Z,86.29
2018-09-04T10:04:32.843Z,85.36
2018-09-04T10:07:00.201Z,85.09
2018-09-04T10:09:27.528Z,85.49
2018-09-04T10:11:54.961Z,85.18
2018-09-04T10:14:22.521Z,84.92
2018-09-04T10:16:49.821Z,85.11
2018-09-04T10:19:17.062Z,85.21
2018-09-04T10:21:44.337Z,85.21
2018-09-04T10:24:11.606Z,84.34
2018-09-04T10:26:39.091Z,84.49
2018-09-04T10:29:06.333Z,84.26
2018-09-04T10:31:33.709Z,84.32
2018-09-04T10:34:01.109Z,83.83
2018-09-04T10:36:28.690Z,83.39
2018-09-04T10:39:01.645Z,83.15
2018-09-04T10:41:28.912Z,82.64
2018-09-04T10:43:57.213Z,81.85
2018-09-04T10:46:25.632Z,82.19
2018-09-04T10:48:53.074Z,81.77
2018-09-04T10:51:20.466Z,81.11
2018-09-04T10:53:47.931Z,81.35
2018-09-04T10:56:15.408Z,80.86
2018-09-04T10:58:42.792Z,81.17
2018-09-04T11:01:10.313Z,81.38
2018-09-04T11:03:37.923Z,81.33
2018-09-04T11:06:05.191Z,81.22
2018-09-04T11:08:32.860Z,81.24
2018-09-04T11:11:00.298Z,80.41
2018-09-04T11:13:27.663Z,80.25
2018-09-04T11:15:55.421Z,79.79
2018-09-04T11:18:22.958Z,79.60
2018-09-04T11:20:50.377Z,79.10
2018-09-04T11:23:17.674Z,78.90
2018-09-04T11:25:45.918Z,78.33
2018-09-04T11:28:13.230Z,78.47
2018-09-04T11:30:40.594Z,77.81
2018-09-04T11:33:08.078Z,77.79
2018-09-04T11:35:35.416Z,77.40
2018-09-04T11:38:03.478Z,77.74
2018-09-04T11:40:31.245Z,77.13
2018-09-04T11:42:58.598Z,77.31
2018-09-04T11:45:25.993Z,77.48
2018-09-04T11:47:53.237Z,77.36
2018-09-04T11:50:20.805Z,77.12
2018-09-04T11:52:48.137Z,76.49
2018-09-04T11:55:15.591Z,77.06
2018-09-04T11:57:43.234Z,76.86
2018-09-04T12:00:15.545Z,76.63
2018-09-04T12:02:43.528Z,76.40
2018-09-04T12:05:10.862Z,76.73
2018-09-04T12:07:38.875Z,77.34
2018-09-04T12:10:06.761Z,77.10
2018-09-04T12:12:34.898Z,76.33
2018-09-04T12:15:02.127Z,76.26
2018-09-04T12:17:30.042Z,76.20
2018-09-04T12:21:02.865Z,76.07
2018-09-04T12:23:30.157Z,75.86
2018-09-04T12:25:59.306Z,76.39
2018-09-04T12:28:26.659Z,75.76
2018-09-04T12:30:55.565Z,75.99
2018-09-04T12:33:23.260Z,75.77
2018-09-04T12:35:50.575Z,76.19
2018-09-04T12:38:20.594Z,76.82
2018-09-04T12:40:48.460Z,76.14
2018-09-04T12:43:16.029Z,75.28
2018-09-04T12:45:49.097Z,73.72
2018-09-04T12:48:21.343Z,74.51
2018-09-04T12:50:49.264Z,73.45
2018-09-04T12:53:16.528Z,72.68
2018-09-04T12:55:43.831Z,73.06
2018-09-04T12:58:11.952Z,72.33
2018-09-04T13:00:41.999Z,73.21
2018-09-04T13:03:09.297Z,71.49
2018-09-04T13:05:36.738Z,71.73
2018-09-04T13:08:04.008Z,71.23
2018-09-04T13:10:31.528Z,71.69
2018-09-04T13:13:00.037Z,71.04
2018-09-04T13:15:28.329Z,69.78
2018-09-04T13:17:55.906Z,70.15
2018-09-04T13:20:23.321Z,70.55
2018-09-04T13:22:50.924Z,69.66
2018-09-04T13:25:18.287Z,70.51
2018-09-04T13:27:46.281Z,70.68
2018-09-04T13:30:13.945Z,71.47
2018-09-04T13:32:41.451Z,71.09
2018-09-04T13:35:09.089Z,70.35
2018-09-04T13:37:36.648Z,69.89
2018-09-04T13:40:04.631Z,69.01
2018-09-04T13:42:32.842Z,69.53
2018-09-04T13:45:00.479Z,69.45
2018-09-04T13:47:30.274Z,68.98
2018-09-04T13:49:58.035Z,69.37
2018-09-04T13:52:26.594Z,68.89
2018-09-04T13:54:53.949Z,70.42
2018-09-04T13:57:21.339Z,70.12
2018-09-04T13:59:48.721Z,66.70
2018-09-04T14:02:16.254Z,67.21
2018-09-04T14:04:44.117Z,68.26
2018-09-04T14:07:11.565Z,68.52
2018-09-04T14:09:38.913Z,69.44
2018-09-04T14:12:06.422Z,68.34
2018-09-04T14:14:34.369Z,68.94
2018-09-04T14:17:01.786Z,67.15
2018-09-04T14:19:29.627Z,68.41
2018-09-04T14:21:57.018Z,67.04
2018-09-04T14:24:24.818Z,66.14
2018-09-04T14:26:52.287Z,66.00
2018-09-04T14:29:53.166Z,67.68
2018-09-04T14:31:47.355Z,67.94
2018-09-04T14:34:14.772Z,65.72
2018-09-04T14:36:42.199Z,64.26
2018-09-04T14:39:09.766Z,66.30
2018-09-04T14:41:37.163Z,65.75
2018-09-04T14:44:04.744Z,65.61
2018-09-04T14:46:32.294Z,66.44
2018-09-04T14:48:59.808Z,59.77
2018-09-04T14:51:27.113Z,62.48
2018-09-04T14:53:54.434Z,56.12
2018-09-04T14:56:21.927Z,58.23
2018-09-04T14:58:49.587Z,60.08
2018-09-04T15:01:17.355Z,54.74
2018-09-04T15:03:44.669Z,52.73
2018-09-04T15:06:12.038Z,55.04
2018-09-04T15:08:39.649Z,49.39
2018-09-04T15:11:07.242Z,48.73
2018-09-04T15:13:34.837Z,50.02
2018-09-04T15:16:02.428Z,51.64
2018-09-04T15:18:29.918Z,51.14
2018-09-04T15:20:58.120Z,52.36
2018-09-04T15:23:25.681Z,53.61
2018-09-04T15:25:53.106Z,54.57
2018-09-04T15:28:20.451Z,54.22
2018-09-04T15:30:48.752Z,52.92
2018-09-04T15:33:16.744Z,51.79
2018-09-04T15:35:44.256Z,53.06
2018-09-04T15:38:11.703Z,52.79
2018-09-04T15:40:39.065Z,55.89
2018-09-04T15:43:06.895Z,54.26
2018-09-04T15:45:34.988Z,51.86
2018-09-04T15:48:02.342Z,52.11
2018-09-04T15:50:29.861Z,52.01
2018-09-04T15:52:57.344Z,49.35
2018-09-04T15:55:24.685Z,48.67
2018-09-04T15:57:52.183Z,48.05
2018-09-04T16:00:19.857Z,48.80
2018-09-04T16:02:47.395Z,47.14
2018-09-04T16:05:14.633Z,46.15
2018-09-04T16:07:41.929Z,46.44
2018-09-04T16:10:10.204Z,49.33
2018-09-04T16:12:37.553Z,53.72
2018-09-04T16:15:04.959Z,54.25
2018-09-04T16:17:32.948Z,55.84
2018-09-04T16:20:00.715Z,57.47
2018-09-04T16:22:28.466Z,58.07
2018-09-04T16:24:55.950Z,59.37
2018-09-04T16:27:23.866Z,60.34
2018-09-04T16:29:51.215Z,61.60
2018-09-04T16:32:18.961Z,61.92
2018-09-04T16:34:46.378Z,63.00
2018-09-04T16:37:13.712Z,64.48
2018-09-04T16:39:40.966Z,64.29
2018-09-04T16:42:08.676Z,63.82
2018-09-04T16:44:36.173Z,63.72
2018-09-04T16:47:04.081Z,63.82
2018-09-04T16:49:32.203Z,64.63
2018-09-04T16:52:00.526Z,65.43
2018-09-04T16:54:28.881Z,65.65
2018-09-04T16:56:56.352Z,66.43
2018-09-04T16:59:23.794Z,66.28
2018-09-04T17:01:51.749Z,66.48
2018-09-04T17:04:19.031Z,67.11
2018-09-04T17:06:46.667Z,67.81
2018-09-04T17:09:14.448Z,68.29
2018-09-04T17:11:41.718Z,68.87
2018-09-04T17:14:09.037Z,69.06
2018-09-04T17:16:36.700Z,69.27
2018-09-04T17:19:04.295Z,69.53
2018-09-04T17:21:31.731Z,69.64
2018-09-04T17:23:59.130Z,70.16
2018-09-04T17:26:26.590Z,70.36
2018-09-04T17:28:54.028Z,70.70
2018-09-04T17:31:21.369Z,70.82
2018-09-04T17:33:48.710Z,70.94
2018-09-04T17:36:16.005Z,70.96
2018-09-04T17:38:43.339Z,72.09
2018-09-04T17:41:10.908Z,72.55
2018-09-04T17:43:38.270Z,72.87
2018-09-04T17:46:05.929Z,72.68
2018-09-04T17:48:33.220Z,73.48
2018-09-04T17:51:00.740Z,73.71
2018-09-04T17:53:28.064Z,73.43
2018-09-04T17:55:55.365Z,73.98
2018-09-04T17:58:22.726Z,74.06
2018-09-04T18:00:50.053Z,74.15
2018-09-04T18:03:17.361Z,73.85
2018-09-04T18:05:44.885Z,73.93
2018-09-04T18:08:12.333Z,75.39
2018-09-04T18:10:41.348Z,75.02
2018-09-04T18:13:08.978Z,75.57
2018-09-04T18:15:36.375Z,75.51
2018-09-04T18:18:03.822Z,75.34
2018-09-04T18:20:31.203Z,75.94
2018-09-04T18:22:58.713Z,76.49
2018-09-04T18:25:26.288Z,76.77
2018-09-04T18:27:53.522Z,76.80
2018-09-04T18:30:20.750Z,76.94
2018-09-04T18:32:48.139Z,77.08
2018-09-04T18:35:15.484Z,77.17
2018-09-04T18:37:42.742Z,77.76
2018-09-04T18:40:10.049Z,78.26
2018-09-04T18:42:37.518Z,77.75
2018-09-04T18:45:05.164Z,77.35
2018-09-04T18:47:32.474Z,78.12
2018-09-04T18:50:00.312Z,78.46
2018-09-04T18:52:27.577Z,78.11
2018-09-04T18:54:55.129Z,78.36
2018-09-04T18:57:22.418Z,78.50
2018-09-04T18:59:49.706Z,78.79
2018-09-04T19:02:17.138Z,78.30
2018-09-04T19:04:44.493Z,78.88
2018-09-04T19:07:12.505Z,78.86
2018-09-04T19:09:40.164Z,80.15
2018-09-04T19:12:07.558Z,79.96
2018-09-04T19:14:34.865Z,79.87
2018-09-04T19:17:02.506Z,80.64
2018-09-04T19:19:29.957Z,80.02
2018-09-04T19:21:57.278Z,80.23
2018-09-04T19:24:24.618Z,81.75
2018-09-04T19:26:52.683Z,80.73
2018-09-04T19:29:20.912Z,80.76
2018-09-04T19:31:48.624Z,80.55
2018-09-04T19:34:15.841Z,81.54
2018-09-04T19:36:43.250Z,81.38
2018-09-04T19:39:11.293Z,81.53
2018-09-04T19:41:38.801Z,81.40
2018-09-04T19:44:06.491Z,81.28
2018-09-04T19:46:34.319Z,81.27
2018-09-04T19:49:01.931Z,81.92
2018-09-04T19:51:29.192Z,82.12
2018-09-04T19:53:56.443Z,82.18
2018-09-04T19:56:23.817Z,82.10
2018-09-04T19:58:51.189Z,82.35
2018-09-04T20:01:18.601Z,81.80
2018-09-04T20:03:45.902Z,81.91
2018-09-04T20:06:13.477Z,82.49
2018-09-04T20:08:41.358Z,82.55
2018-09-04T20:11:08.660Z,83.04
2018-09-04T20:13:35.955Z,83.17
2018-09-04T20:16:03.620Z,83.17
2018-09-04T20:18:31.023Z,82.98
2018-09-04T20:20:58.331Z,82.95
2018-09-04T20:23:25.635Z,83.74
2018-09-04T20:25:52.914Z,83.66
2018-09-04T20:28:20.272Z,83.92
2018-09-04T20:30:47.633Z,84.52
2018-09-04T20:33:14.966Z,85.20
2018-09-04T20:35:42.211Z,84.97
2018-09-04T20:38:09.499Z,84.96
2018-09-04T20:40:36.790Z,84.29
2018-09-04T20:43:04.120Z,85.19
2018-09-04T20:45:31.552Z,84.34
2018-09-04T20:47:58.960Z,83.95
2018-09-04T20:50:26.840Z,83.96
2018-09-04T20:52:54.569Z,84.71
2018-09-04T20:55:22.432Z,85.30
2018-09-04T20:58:01.929Z,84.74
2018-09-04T21:00:40.807Z,84.74
2018-09-04T21:03:19.737Z,84.83
2018-09-04T21:05:58.416Z,85.40
2018-09-04T21:08:39.317Z,85.63
2018-09-04T21:11:07.449Z,85.49
2018-09-04T21:13:34.748Z,86.18
2018-09-04T21:16:02.030Z,86.42
2018-09-04T21:18:29.272Z,86.50
2018-09-04T21:20:56.574Z,86.27
2018-09-04T21:23:23.916Z,85.97
2018-09-04T21:25:51.409Z,86.13
2018-09-04T21:28:19.338Z,86.00
2018-09-04T21:30:46.977Z,86.65
2018-09-04T21:33:14.326Z,86.23
2018-09-04T21:35:41.765Z,85.85
2018-09-04T21:38:09.923Z,86.79
2018-09-04T21:40:37.512Z,87.34
2018-09-04T21:43:04.848Z,86.62
2018-09-04T21:45:32.389Z,87.34
2018-09-04T21:47:59.820Z,87.62
2018-09-04T21:50:27.184Z,87.75
2018-09-04T21:52:54.823Z,87.62
2018-09-04T21:55:25.948Z,88.12
2018-09-04T21:57:54.200Z,87.29
2018-09-04T22:00:25.579Z,87.62
2018-09-04T22:02:54.817Z,87.62
2018-09-04T22:05:23.421Z,86.92
2018-09-04T22:07:50.771Z,87.55
2018-09-04T22:10:18.697Z,87.38
2018-09-04T22:12:46.126Z,87.67
2018-09-04T22:15:13.439Z,88.95
2018-09-04T22:17:40.726Z,88.92
2018-09-04T22:20:08.445Z,88.51
2018-09-04T22:22:35.890Z,88.15
2018-09-04T22:25:03.713Z,88.30
2018-09-04T22:27:30.996Z,88.13
2018-09-04T22:29:58.326Z,87.89
2018-09-04T22:32:25.971Z,87.54
2018-09-04T22:34:53.413Z,87.66
2018-09-04T22:37:20.770Z,87.72
2018-09-04T22:39:48.344Z,87.26
2018-09-04T22:42:15.721Z,88.26
2018-09-04T22:44:43.476Z,88.33
2018-09-04T22:47:11.454Z,87.66
2018-09-04T22:49:43.296Z,87.76
2018-09-04T22:52:10.614Z,87.46
2018-09-04T22:54:38.290Z,88.35
2018-09-04T22:57:05.990Z,87.93
2018-09-04T22:59:33.305Z,86.87
2018-09-04T23:02:00.670Z,87.81
2018-09-04T23:04:28.173Z,88.37
2018-09-04T23:06:55.450Z,87.67
2018-09-04T23:09:22.815Z,88.25
2018-09-04T23:11:50.076Z,87.99
2018-09-04T23:14:17.309Z,88.07
2018-09-04T23:16:44.566Z,88.31
2018-09-04T23:19:12.584Z,88.31
2018-09-04T23:21:39.986Z,89.00
2018-09-04T23:24:07.335Z,88.39
2018-09-04T23:26:34.645Z,89.22
2018-09-04T23:29:03.070Z,89.11
2018-09-04T23:31:30.349Z,88.89
2018-09-04T23:33:57.759Z,88.55
2018-09-04T23:36:25.313Z,88.50
2018-09-04T23:38:52.692Z,88.38
2018-09-04T23:41:20.097Z,88.45
2018-09-04T23:43:47.375Z,88.45
2018-09-04T23:46:14.751Z,89.18
2018-09-04T23:48:42.142Z,89.29
2018-09-04T23:51:09.500Z,89.86
2018-09-04T23:53:36.926Z,89.60
2018-09-04T23:56:04.672Z,88.98
2018-09-04T23:58:32.408Z,89.54
